Time;durP1;ratioP1;P1;durP2;ratioP2;P2;SDS_P1;SDS_P2;PMS_P1;PMS_P2;Temp;Humidity;BMP_temperature;BMP_pressure;BME280_temperature;BME280_humidity;BME280_pressure;Samples;Min_cycle;Max_cycle;Signal;HPM_P1;HPM_P2
2023/01/30 00:01:45;;;;;;;;;;;21.10;34.30;;;;;;5096113;28;19926;-74
2023/01/30 00:04:12;;;;;;;;;;;21.10;34.30;;;;;;5096014;28;20430;-75
2023/01/30 00:06:38;;;;;;;;;;;21.10;34.40;;;;;;5095863;28;19920;-75
2023/01/30 00:09:03;;;;;;;;;;;21.00;34.30;;;;;;5095552;28;19920;-75
2023/01/30 00:11:32;;;;;;;;;;;21.10;34.40;;;;;;5095063;28;19920;-76
2023/01/30 00:13:58;;;;;;;;;;;21.00;34.30;;;;;;5095353;28;19920;-75
2023/01/30 00:16:24;;;;;;;;;;;21.00;34.30;;;;;;5113618;28;19920;-74
2023/01/30 00:18:50;;;;;;;;;;;21.00;34.40;;;;;;5094982;28;20286;-74
2023/01/30 00:21:15;;;;;;;;;;;21.10;34.40;;;;;;5113951;28;19929;-75
2023/01/30 00:23:41;;;;;;;;;;;21.00;34.40;;;;;;5113818;28;19919;-74
2023/01/30 00:26:07;;;;;;;;;;;21.10;34.50;;;;;;5113373;28;20298;-74
2023/01/30 00:28:32;;;;;;;;;;;21.00;34.40;;;;;;5095048;28;19920;-74
2023/01/30 00:30:58;;;;;;;;;;;21.00;34.50;;;;;;5095204;28;19927;-75
2023/01/30 00:33:25;;;;;;;;;;;21.00;34.50;;;;;;5113434;28;19973;-75
2023/01/30 00:35:51;;;;;;;;;;;21.10;34.60;;;;;;5095227;28;19919;-75
2023/01/30 00:38:17;;;;;;;;;;;21.00;34.50;;;;;;5113252;28;20389;-75
2023/01/30 00:40:43;;;;;;;;;;;21.00;34.50;;;;;;5113259;28;20288;-76
2023/01/30 00:48:42;;;;;;;;;;;21.00;34.60;;;;;;5094778;28;19920;-75
2023/01/30 00:51:07;;;;;;;;;;;21.00;34.60;;;;;;5129248;27;19920;-75
2023/01/30 00:53:33;;;;;;;;;;;21.10;34.70;;;;;;5113206;28;20263;-74
2023/01/30 00:55:59;;;;;;;;;;;21.00;34.60;;;;;;5113062;28;20416;-74
2023/01/30 00:58:24;;;;;;;;;;;21.10;34.70;;;;;;5094773;28;20405;-73
2023/01/30 01:00:50;;;;;;;;;;;21.10;34.70;;;;;;5095028;28;20326;-74
2023/01/30 01:03:16;;;;;;;;;;;21.00;34.60;;;;;;5129047;27;20011;-74
2023/01/30 01:05:44;;;;;;;;;;;21.10;34.70;;;;;;5095217;28;20022;-75
2023/01/30 01:08:10;;;;;;;;;;;21.00;34.60;;;;;;5094426;28;20283;-75
2023/01/30 01:10:36;;;;;;;;;;;21.10;34.70;;;;;;5128696;27;19923;-74
2023/01/30 01:13:02;;;;;;;;;;;21.00;34.60;;;;;;5094559;28;19920;-76
2023/01/30 01:15:28;;;;;;;;;;;21.10;34.70;;;;;;5094856;28;20030;-75
2023/01/30 01:17:53;;;;;;;;;;;21.10;34.70;;;;;;5127504;28;19978;-76
2023/01/30 01:20:20;;;;;;;;;;;21.10;34.70;;;;;;5094845;28;19920;-75
2023/01/30 01:22:49;;;;;;;;;;;21.10;34.70;;;;;;5112626;28;19966;-74
2023/01/30 01:25:14;;;;;;;;;;;21.00;34.70;;;;;;5112755;28;19920;-74
2023/01/30 01:27:40;;;;;;;;;;;21.10;34.80;;;;;;5128342;28;19920;-75
2023/01/30 01:30:06;;;;;;;;;;;21.10;34.80;;;;;;5112710;28;19972;-74
2023/01/30 01:32:32;;;;;;;;;;;21.10;34.80;;;;;;5128403;28;19958;-73
2023/01/30 01:35:00;;;;;;;;;;;21.10;34.80;;;;;;5128744;28;19919;-73
2023/01/30 01:37:26;;;;;;;;;;;21.10;34.80;;;;;;5093480;28;20005;-71
2023/01/30 01:42:37;;;;;;;;;;;21.10;34.90;;;;;;5098528;28;19927;-71
2023/01/30 01:47:57;;;;;;;;;;;21.10;34.90;;;;;;5110292;27;19912;-71
2023/01/30 01:50:26;;;;;;;;;;;21.00;34.80;;;;;;5108964;28;19952;-71
2023/01/30 01:52:54;;;;;;;;;;;21.10;35.00;;;;;;5108947;28;19919;-72
2023/01/30 01:55:24;;;;;;;;;;;21.00;34.90;;;;;;5109124;28;19920;-72
2023/01/30 01:57:51;;;;;;;;;;;21.10;35.10;;;;;;5092102;28;20021;-71
2023/01/30 02:00:19;;;;;;;;;;;21.10;35.10;;;;;;5108650;28;19930;-74
2023/01/30 02:03:04;;;;;;;;;;;21.10;35.00;;;;;;5109108;28;19927;-73
2023/01/30 02:05:32;;;;;;;;;;;21.10;35.00;;;;;;5108985;28;19927;-73
2023/01/30 02:08:07;;;;;;;;;;;21.10;35.10;;;;;;5108938;28;19920;-72
2023/01/30 02:13:19;;;;;;;;;;;21.10;35.20;;;;;;5125009;27;1938257;-74
2023/01/30 02:15:45;;;;;;;;;;;21.10;35.10;;;;;;5174577;27;19987;-74
2023/01/30 02:18:11;;;;;;;;;;;21.10;35.20;;;;;;5174481;27;19943;-75
2023/01/30 02:20:57;;;;;;;;;;;21.10;35.20;;;;;;5174335;27;20410;-74
2023/01/30 02:23:42;;;;;;;;;;;21.00;35.20;;;;;;5174342;27;19922;-76
2023/01/30 02:40:33;;;;;;;;;;;21.10;35.30;;;;;;5130741;27;20014;-75
2023/01/30 02:43:19;;;;;;;;;;;21.10;35.30;;;;;;5129166;28;19920;-74
2023/01/30 02:48:31;;;;;;;;;;;21.10;35.40;;;;;;5109670;27;19918;-76
2023/01/30 02:51:06;;;;;;;;;;;21.10;35.40;;;;;;5109316;28;20014;-72
2023/01/30 02:53:32;;;;;;;;;;;21.10;35.40;;;;;;5109203;28;19920;-74
2023/01/30 02:55:58;;;;;;;;;;;21.10;35.40;;;;;;5109141;28;20272;-73
2023/01/30 02:58:26;;;;;;;;;;;21.10;35.40;;;;;;5108383;28;19998;-73
2023/01/30 03:06:21;;;;;;;;;;;21.10;35.40;;;;;;5089913;28;20299;-74
2023/01/30 03:08:56;;;;;;;;;;;21.10;35.40;;;;;;5088638;28;19920;-73
2023/01/30 03:11:24;;;;;;;;;;;21.10;35.50;;;;;;5088454;28;19920;-74
2023/01/30 03:16:36;;;;;;;;;;;21.30;35.40;;;;;;5130702;27;20014;-77
2023/01/30 03:19:02;;;;;;;;;;;21.20;35.30;;;;;;5129475;28;19919;-74
2023/01/30 03:21:27;;;;;;;;;;;21.30;35.30;;;;;;5130648;27;19920;-75
2023/01/30 03:23:53;;;;;;;;;;;21.30;35.20;;;;;;5113418;28;19926;-74
2023/01/30 03:26:21;;;;;;;;;;;21.40;35.20;;;;;;5109901;28;20014;-75
2023/01/30 03:28:48;;;;;;;;;;;21.40;35.20;;;;;;5109051;28;19927;-73
2023/01/30 03:31:14;;;;;;;;;;;21.50;35.20;;;;;;5109070;28;19942;-73
2023/01/30 03:33:40;;;;;;;;;;;21.50;35.10;;;;;;5109003;28;19954;-74
2023/01/30 03:36:05;;;;;;;;;;;21.50;35.10;;;;;;5108133;28;20382;-74
2023/01/30 03:38:32;;;;;;;;;;;21.50;35.00;;;;;;5108681;28;19920;-74
2023/01/30 03:41:01;;;;;;;;;;;21.50;35.00;;;;;;5109885;28;19929;-73
2023/01/30 03:43:27;;;;;;;;;;;21.60;35.10;;;;;;5108418;28;19927;-73
2023/01/30 03:45:52;;;;;;;;;;;21.50;35.00;;;;;;5108469;28;19920;-73
2023/01/30 03:48:18;;;;;;;;;;;21.50;35.00;;;;;;5108387;28;20020;-74
2023/01/30 03:50:43;;;;;;;;;;;21.60;35.10;;;;;;5109653;28;19920;-73
2023/01/30 03:53:09;;;;;;;;;;;21.60;35.10;;;;;;5108465;28;20286;-73
2023/01/30 03:55:34;;;;;;;;;;;21.50;35.00;;;;;;5109756;28;19924;-72
2023/01/30 03:58:00;;;;;;;;;;;21.60;35.10;;;;;;5108464;28;20317;-73
2023/01/30 04:00:25;;;;;;;;;;;21.50;35.00;;;;;;5108131;28;19924;-72
2023/01/30 04:02:52;;;;;;;;;;;21.50;35.10;;;;;;5109370;28;19974;-73
2023/01/30 04:05:18;;;;;;;;;;;21.50;35.10;;;;;;5108101;28;19928;-73
2023/01/30 04:07:43;;;;;;;;;;;21.50;35.10;;;;;;5107997;28;19946;-73
2023/01/30 04:10:09;;;;;;;;;;;21.50;35.10;;;;;;5107861;28;19920;-74
2023/01/30 04:12:35;;;;;;;;;;;21.40;35.10;;;;;;5109444;28;19950;-73
2023/01/30 04:15:00;;;;;;;;;;;21.40;35.20;;;;;;5107642;28;19928;-74
2023/01/30 04:17:26;;;;;;;;;;;21.50;35.30;;;;;;5107078;28;20290;-74
2023/01/30 04:19:51;;;;;;;;;;;21.40;35.20;;;;;;5107844;28;20011;-73
2023/01/30 04:22:17;;;;;;;;;;;21.50;35.30;;;;;;5107799;28;20036;-73
2023/01/30 04:24:42;;;;;;;;;;;21.50;35.30;;;;;;5108861;28;20019;-72
2023/01/30 04:27:08;;;;;;;;;;;21.40;35.30;;;;;;5097953;28;20392;-74
2023/01/30 04:29:34;;;;;;;;;;;21.50;35.30;;;;;;5095236;28;19928;-73
2023/01/30 04:31:59;;;;;;;;;;;21.40;35.30;;;;;;5094316;28;19927;-73
2023/01/30 04:34:25;;;;;;;;;;;21.40;35.30;;;;;;5094107;28;20363;-73
2023/01/30 04:36:50;;;;;;;;;;;21.40;35.40;;;;;;5093900;28;19927;-73
2023/01/30 04:39:16;;;;;;;;;;;21.40;35.40;;;;;;5093704;28;19931;-72
2023/01/30 04:41:41;;;;;;;;;;;21.40;35.40;;;;;;5095010;28;19924;-73
2023/01/30 04:44:07;;;;;;;;;;;21.40;35.40;;;;;;5093702;28;19927;-72
2023/01/30 04:46:32;;;;;;;;;;;21.40;35.40;;;;;;5094979;28;19943;-73
2023/01/30 04:48:58;;;;;;;;;;;21.40;35.50;;;;;;5093693;28;20390;-73
2023/01/30 04:51:24;;;;;;;;;;;21.40;35.40;;;;;;5093807;28;19927;-72
2023/01/30 04:53:49;;;;;;;;;;;21.40;35.40;;;;;;5094839;28;19974;-72
2023/01/30 04:56:17;;;;;;;;;;;21.40;35.40;;;;;;5094654;28;19934;-72
2023/01/30 04:58:43;;;;;;;;;;;21.40;35.40;;;;;;5093794;28;20351;-72
2023/01/30 05:01:13;;;;;;;;;;;21.40;35.40;;;;;;5093723;28;20014;-73
2023/01/30 05:03:39;;;;;;;;;;;21.40;35.40;;;;;;5094662;28;20022;-73
2023/01/30 05:06:05;;;;;;;;;;;21.40;35.40;;;;;;5094664;28;19959;-73
2023/01/30 05:08:30;;;;;;;;;;;21.40;35.40;;;;;;5093687;28;19921;-73
2023/01/30 05:10:56;;;;;;;;;;;21.40;35.40;;;;;;5094390;28;19920;-72
2023/01/30 05:13:22;;;;;;;;;;;21.40;35.40;;;;;;5094694;28;20011;-72
2023/01/30 05:15:47;;;;;;;;;;;21.40;35.30;;;;;;5092803;28;20035;-73
2023/01/30 05:18:13;;;;;;;;;;;21.50;35.40;;;;;;5093403;28;19981;-74
2023/01/30 05:20:38;;;;;;;;;;;21.40;35.30;;;;;;5094339;28;19924;-73
2023/01/30 05:23:04;;;;;;;;;;;21.40;35.30;;;;;;5093096;28;19924;-73
2023/01/30 05:25:29;;;;;;;;;;;21.50;35.30;;;;;;5094133;28;19920;-72
2023/01/30 05:27:56;;;;;;;;;;;21.50;35.40;;;;;;5094420;28;19962;-72
2023/01/30 05:30:21;;;;;;;;;;;21.50;35.40;;;;;;5093174;28;19920;-72
2023/01/30 05:32:47;;;;;;;;;;;21.40;35.40;;;;;;5093160;28;19920;-72
2023/01/30 05:35:12;;;;;;;;;;;21.30;35.30;;;;;;5092762;28;20386;-72
2023/01/30 05:37:38;;;;;;;;;;;21.40;35.40;;;;;;5092032;28;19920;-72
2023/01/30 05:40:04;;;;;;;;;;;21.40;35.40;;;;;;5092400;28;19920;-73
2023/01/30 05:42:30;;;;;;;;;;;21.40;35.40;;;;;;5092885;28;19973;-72
2023/01/30 05:44:55;;;;;;;;;;;21.40;35.40;;;;;;5094662;28;20331;-72
2023/01/30 05:47:21;;;;;;;;;;;21.40;35.40;;;;;;5112921;28;20006;-72
2023/01/30 05:49:46;;;;;;;;;;;21.50;35.40;;;;;;5112991;28;20060;-72
2023/01/30 05:52:12;;;;;;;;;;;21.40;35.40;;;;;;5096016;28;19959;-73
2023/01/30 05:54:37;;;;;;;;;;;21.50;35.40;;;;;;5092340;28;20008;-72
2023/01/30 05:57:03;;;;;;;;;;;21.40;35.30;;;;;;5092176;28;20016;-72
2023/01/30 05:59:28;;;;;;;;;;;21.50;35.40;;;;;;5092291;28;19920;-72
2023/01/30 06:01:54;;;;;;;;;;;21.50;35.40;;;;;;5092287;28;19926;-72
2023/01/30 06:04:19;;;;;;;;;;;21.50;35.40;;;;;;5092655;28;19927;-73
2023/01/30 06:06:47;;;;;;;;;;;21.50;35.40;;;;;;5092107;28;19946;-72
2023/01/30 06:09:12;;;;;;;;;;;21.40;35.30;;;;;;5092528;28;20029;-72
2023/01/30 06:11:38;;;;;;;;;;;21.40;35.30;;;;;;5092065;28;20400;-73
2023/01/30 06:14:04;;;;;;;;;;;21.40;35.40;;;;;;5093199;28;19920;-72
2023/01/30 06:16:29;;;;;;;;;;;21.40;35.40;;;;;;5091690;28;19925;-72
2023/01/30 06:18:54;;;;;;;;;;;21.40;35.40;;;;;;5091871;28;19924;-73
2023/01/30 06:21:20;;;;;;;;;;;21.40;35.30;;;;;;5092009;28;20024;-73
2023/01/30 06:23:46;;;;;;;;;;;21.40;35.30;;;;;;5091823;28;19966;-72
2023/01/30 06:26:11;;;;;;;;;;;21.40;35.30;;;;;;5105602;28;19934;-71
2023/01/30 06:28:37;;;;;;;;;;;21.40;35.40;;;;;;5097133;28;20569;-75
2023/01/30 06:31:04;;;;;;;;;;;21.40;35.60;;;;;;5104286;28;19943;-67
2023/01/30 06:33:30;;;;;;;;;;;21.30;35.70;;;;;;5109455;28;20379;-67
2023/01/30 06:35:55;;;;;;;;;;;21.10;35.70;;;;;;5101997;28;19924;-66
2023/01/30 06:38:21;;;;;;;;;;;20.90;35.70;;;;;;5093874;28;20397;-65
2023/01/30 06:40:48;;;;;;;;;;;20.70;36.00;;;;;;5108445;28;20025;-67
2023/01/30 06:43:14;;;;;;;;;;;20.70;37.00;;;;;;5109642;28;20290;-66
2023/01/30 06:45:39;;;;;;;;;;;20.80;36.20;;;;;;5101491;28;19920;-66
2023/01/30 06:48:05;;;;;;;;;;;21.00;36.30;;;;;;5088609;28;19934;-67
2023/01/30 06:50:31;;;;;;;;;;;21.30;36.00;;;;;;5085240;28;19920;-68
2023/01/30 06:52:57;;;;;;;;;;;21.40;35.50;;;;;;5102944;28;19955;-68
2023/01/30 06:55:24;;;;;;;;;;;21.60;35.20;;;;;;5091169;28;19963;-68
2023/01/30 06:57:49;;;;;;;;;;;21.80;34.90;;;;;;5087386;28;19920;-67
2023/01/30 07:00:17;;;;;;;;;;;22.10;34.60;;;;;;5093928;28;19928;-68
2023/01/30 07:02:43;;;;;;;;;;;22.30;34.20;;;;;;5090569;28;20302;-67
2023/01/30 07:05:09;;;;;;;;;;;22.40;33.90;;;;;;5095275;28;20453;-68
2023/01/30 07:07:35;;;;;;;;;;;22.60;33.60;;;;;;5092266;28;19920;-68
2023/01/30 07:10:04;;;;;;;;;;;22.80;33.30;;;;;;5089836;28;19946;-68
2023/01/30 07:12:30;;;;;;;;;;;22.90;32.70;;;;;;5087008;28;19973;-68
2023/01/30 07:14:55;;;;;;;;;;;23.00;32.30;;;;;;5099291;28;19924;-67
2023/01/30 07:17:21;;;;;;;;;;;23.00;32.60;;;;;;5096974;28;20208;-69
2023/01/30 07:19:47;;;;;;;;;;;22.90;32.50;;;;;;5093111;28;19920;-69
2023/01/30 07:22:13;;;;;;;;;;;22.90;33.40;;;;;;5090684;28;19920;-68
2023/01/30 07:24:38;;;;;;;;;;;22.70;32.90;;;;;;5089027;28;20020;-70
2023/01/30 07:27:06;;;;;;;;;;;22.50;33.20;;;;;;5091590;28;19947;-68
2023/01/30 07:29:31;;;;;;;;;;;22.40;33.50;;;;;;5087979;28;20339;-69
2023/01/30 07:31:57;;;;;;;;;;;22.30;33.80;;;;;;5069741;28;19924;-68
2023/01/30 07:34:22;;;;;;;;;;;22.20;33.90;;;;;;5091425;28;19920;-68
2023/01/30 07:36:48;;;;;;;;;;;22.10;34.10;;;;;;5088558;28;19923;-69
2023/01/30 07:39:13;;;;;;;;;;;22.00;34.30;;;;;;5093552;28;20015;-67
2023/01/30 07:41:39;;;;;;;;;;;21.90;34.50;;;;;;5095661;28;20007;-67
2023/01/30 07:44:04;;;;;;;;;;;21.90;34.40;;;;;;5102386;28;20300;-67
2023/01/30 07:46:33;;;;;;;;;;;21.80;34.40;;;;;;5092158;28;20302;-66
2023/01/30 07:48:59;;;;;;;;;;;21.60;34.50;;;;;;5091989;28;19927;-75
2023/01/30 07:51:28;;;;;;;;;;;21.50;34.70;;;;;;5090213;28;19924;-74
2023/01/30 07:53:53;;;;;;;;;;;21.50;34.70;;;;;;5101287;28;20379;-76
2023/01/30 07:56:22;;;;;;;;;;;21.50;34.80;;;;;;5090027;28;19932;-75
2023/01/30 07:58:48;;;;;;;;;;;21.50;34.90;;;;;;5090756;28;19924;-67
2023/01/30 08:01:14;;;;;;;;;;;21.50;35.00;;;;;;5082138;28;19928;-66
2023/01/30 08:03:39;;;;;;;;;;;21.50;35.00;;;;;;5091938;28;19972;-68
2023/01/30 08:06:05;;;;;;;;;;;21.50;35.00;;;;;;5087737;28;19971;-69
2023/01/30 08:08:31;;;;;;;;;;;21.60;34.90;;;;;;5097045;28;20150;-72
2023/01/30 08:10:56;;;;;;;;;;;21.70;34.90;;;;;;5090953;28;19924;-70
2023/01/30 08:13:22;;;;;;;;;;;21.70;35.00;;;;;;5092113;28;20290;-71
2023/01/30 08:15:47;;;;;;;;;;;21.70;35.10;;;;;;5089160;28;19975;-68
2023/01/30 08:18:13;;;;;;;;;;;21.80;35.20;;;;;;5096121;28;19930;-70
2023/01/30 08:20:38;;;;;;;;;;;21.70;35.20;;;;;;5092460;28;20343;-70
2023/01/30 08:23:04;;;;;;;;;;;21.70;35.20;;;;;;5088734;28;20480;-67
2023/01/30 08:25:30;;;;;;;;;;;21.60;35.30;;;;;;5098943;28;20300;-75
2023/01/30 08:27:57;;;;;;;;;;;21.60;35.30;;;;;;5098416;28;19923;-73
2023/01/30 08:30:22;;;;;;;;;;;21.50;35.40;;;;;;5094916;28;19993;-69
2023/01/30 08:32:48;;;;;;;;;;;21.30;35.50;;;;;;5095600;28;20448;-69
2023/01/30 08:35:14;;;;;;;;;;;21.30;35.60;;;;;;5095074;28;19924;-80
2023/01/30 08:37:40;;;;;;;;;;;21.10;35.80;;;;;;5097546;28;20291;-76
2023/01/30 08:40:06;;;;;;;;;;;21.10;35.80;;;;;;5094863;28;19972;-73
2023/01/30 08:42:32;;;;;;;;;;;21.10;35.90;;;;;;5100861;28;19926;-76
2023/01/30 08:44:57;;;;;;;;;;;21.10;36.10;;;;;;5089773;28;19924;-76
2023/01/30 08:47:23;;;;;;;;;;;21.10;36.10;;;;;;5098308;28;19924;-73
2023/01/30 08:49:50;;;;;;;;;;;21.10;36.10;;;;;;5099725;28;19923;-74
2023/01/30 08:52:15;;;;;;;;;;;21.20;36.20;;;;;;5093911;28;19924;-69
2023/01/30 08:54:41;;;;;;;;;;;21.30;36.20;;;;;;5089412;28;19928;-70
2023/01/30 08:57:07;;;;;;;;;;;21.20;36.20;;;;;;5089855;28;20436;-70
2023/01/30 08:59:32;;;;;;;;;;;21.30;36.20;;;;;;5094106;28;19946;-75
2023/01/30 09:02:01;;;;;;;;;;;21.30;36.10;;;;;;5101107;28;19919;-75
2023/01/30 09:04:28;;;;;;;;;;;21.40;36.10;;;;;;5088652;28;20379;-73
2023/01/30 09:06:54;;;;;;;;;;;21.40;36.10;;;;;;5086751;28;19985;-72
2023/01/30 09:09:19;;;;;;;;;;;21.40;36.10;;;;;;5090802;28;20358;-73
2023/01/30 09:11:48;;;;;;;;;;;21.40;36.10;;;;;;5085640;28;19985;-72
2023/01/30 09:14:18;;;;;;;;;;;21.50;36.20;;;;;;5091336;28;19931;-72
2023/01/30 09:16:45;;;;;;;;;;;21.50;36.30;;;;;;5095100;28;19932;-67
2023/01/30 09:19:10;;;;;;;;;;;21.50;36.40;;;;;;5091020;28;19954;-67
2023/01/30 09:21:37;;;;;;;;;;;21.50;36.40;;;;;;5094242;28;20581;-67
2023/01/30 09:24:03;;;;;;;;;;;21.50;36.30;;;;;;5097438;28;19924;-64
2023/01/30 09:26:29;;;;;;;;;;;21.50;36.30;;;;;;5098649;28;20449;-64
2023/01/30 09:28:54;;;;;;;;;;;21.40;36.10;;;;;;5092853;28;19970;-63
2023/01/30 09:31:20;;;;;;;;;;;21.40;36.20;;;;;;5089363;28;19930;-64
2023/01/30 09:33:46;;;;;;;;;;;21.30;36.20;;;;;;5097251;28;19920;-64
2023/01/30 09:36:11;;;;;;;;;;;21.30;36.20;;;;;;5091698;28;19920;-64
2023/01/30 09:38:37;;;;;;;;;;;21.30;36.00;;;;;;5095017;28;19931;-64
2023/01/30 09:41:22;;;;;;;;;;;21.10;35.80;;;;;;5093486;28;19947;-64
2023/01/30 09:44:08;;;;;;;;;;;21.00;35.90;;;;;;5093293;28;19924;-64
2023/01/30 09:52:23;;;;;;;;;;;21.00;36.10;;;;;;5076248;27;19924;-64
2023/01/30 09:54:50;;;;;;;;;;;21.00;36.10;;;;;;5059809;28;20366;-68
2023/01/30 09:57:19;;;;;;;;;;;21.10;36.10;;;;;;5056716;28;19998;-69
2023/01/30 09:59:48;;;;;;;;;;;21.20;36.00;;;;;;5057290;28;20001;-68
2023/01/30 10:02:33;;;;;;;;;;;21.40;36.00;;;;;;5058333;28;19924;-70
2023/01/30 10:05:01;;;;;;;;;;;21.50;36.00;;;;;;5057974;28;19990;-71
2023/01/30 10:07:46;;;;;;;;;;;21.60;35.90;;;;;;5054701;28;19977;-71
2023/01/30 10:13:00;;;;;;;;;;;21.70;35.80;;;;;;5063347;28;19921;-66
2023/01/30 10:20:51;;;;;;;;;;;21.70;35.80;;;;;;5055093;28;19934;-66
2023/01/30 10:23:24;;;;;;;;;;;21.70;35.80;;;;;;5057702;28;19932;-65
2023/01/30 10:25:54;;;;;;;;;;;21.70;35.90;;;;;;5051785;28;19929;-71
2023/01/30 10:28:25;;;;;;;;;;;21.60;35.90;;;;;;5059333;28;20404;-69
2023/01/30 10:30:54;;;;;;;;;;;21.50;35.80;;;;;;5054033;28;19928;-70
2023/01/30 10:36:03;;;;;;;;;;;21.40;36.00;;;;;;5066683;27;19931;-68
2023/01/30 10:41:28;;;;;;;;;;;21.40;36.00;;;;;;5089022;27;1907214;-73
2023/01/30 10:46:56;;;;;;;;;;;21.10;35.80;;;;;;5092985;27;1865521;-71
2023/01/30 10:49:42;;;;;;;;;;;21.00;36.10;;;;;;5110121;27;19924;-68
2023/01/30 10:55:02;;;;;;;;;;;21.20;36.20;;;;;;5076916;27;20496;-66
2023/01/30 10:57:34;;;;;;;;;;;21.30;36.10;;;;;;5071609;28;19925;-68
2023/01/30 11:00:04;;;;;;;;;;;21.40;35.90;;;;;;5059080;28;19928;-70
2023/01/30 11:05:14;;;;;;;;;;;21.60;35.80;;;;;;5085811;27;19948;-68
2023/01/30 11:07:40;;;;;;;;;;;21.60;35.70;;;;;;5065682;28;19921;-69
2023/01/30 11:10:14;;;;;;;;;;;21.60;35.70;;;;;;5053223;28;19924;-70
2023/01/30 11:12:40;;;;;;;;;;;21.60;35.70;;;;;;5051221;28;19964;-69
2023/01/30 11:15:07;;;;;;;;;;;21.60;35.80;;;;;;5069041;28;20041;-67
2023/01/30 11:20:15;;;;;;;;;;;21.50;35.80;;;;;;5064488;28;19921;-70
2023/01/30 11:22:45;;;;;;;;;;;21.50;35.80;;;;;;5049216;28;19929;-69
2023/01/30 11:25:14;;;;;;;;;;;21.50;35.80;;;;;;5047824;28;19944;-70
2023/01/30 11:27:40;;;;;;;;;;;21.60;35.80;;;;;;5029983;28;19948;-70
2023/01/30 11:32:48;;;;;;;;;;;21.60;35.70;;;;;;5088453;27;19926;-71
2023/01/30 11:38:09;;;;;;;;;;;21.40;35.30;;;;;;5082095;27;19921;-71
2023/01/30 11:40:36;;;;;;;;;;;21.40;35.40;;;;;;5069348;28;19956;-70
2023/01/30 11:43:03;;;;;;;;;;;21.30;35.40;;;;;;5107194;28;20015;-67
2023/01/30 11:45:33;;;;;;;;;;;21.20;35.60;;;;;;5073717;28;19924;-68
2023/01/30 11:48:02;;;;;;;;;;;21.30;35.80;;;;;;5070607;28;19929;-71
2023/01/30 11:50:30;;;;;;;;;;;21.20;35.70;;;;;;5074091;28;19975;-69
2023/01/30 11:52:58;;;;;;;;;;;21.30;35.80;;;;;;5108475;28;20015;-68
2023/01/30 11:55:24;;;;;;;;;;;21.30;35.80;;;;;;5076340;28;19920;-67
2023/01/30 11:57:52;;;;;;;;;;;21.40;35.90;;;;;;5077636;28;19973;-69
2023/01/30 12:00:20;;;;;;;;;;;21.40;35.90;;;;;;5075399;28;20090;-70
2023/01/30 12:02:47;;;;;;;;;;;21.50;35.90;;;;;;5072324;28;20303;-68
2023/01/30 12:05:20;;;;;;;;;;;21.60;36.00;;;;;;5076251;28;19950;-67
2023/01/30 12:07:46;;;;;;;;;;;21.80;35.90;;;;;;5071910;28;20431;-69
2023/01/30 12:13:05;;;;;;;;;;;22.40;35.70;;;;;;5063477;28;19935;-75
2023/01/30 12:15:32;;;;;;;;;;;22.90;35.30;;;;;;5051005;28;20327;-70
2023/01/30 12:18:17;;;;;;;;;;;23.40;34.90;;;;;;5053036;28;20293;-71
2023/01/30 12:20:58;;;;;;;;;;;23.90;32.50;;;;;;5048198;28;19929;-71
2023/01/30 12:26:06;;;;;;;;;;;24.40;31.20;;;;;;5087419;27;19930;-69
2023/01/30 12:28:36;;;;;;;;;;;24.50;30.70;;;;;;5079523;28;19920;-69
2023/01/30 12:31:08;;;;;;;;;;;24.70;30.30;;;;;;5112672;28;20164;-73
2023/01/30 12:33:34;;;;;;;;;;;24.70;30.10;;;;;;5079346;28;19930;-72
2023/01/30 12:41:56;;;;;;;;;;;25.00;31.30;;;;;;5090847;27;19949;-72
2023/01/30 12:44:42;;;;;;;;;;;25.20;30.80;;;;;;5069246;28;20338;-68
2023/01/30 12:47:27;;;;;;;;;;;25.20;30.90;;;;;;5054092;28;20047;-70
2023/01/30 12:50:01;;;;;;;;;;;25.40;31.30;;;;;;5051503;28;19924;-71
2023/01/30 13:03:26;;;;;;;;;;;25.50;30.80;;;;;;5085385;27;19920;-68
2023/01/30 13:05:59;;;;;;;;;;;25.20;30.90;;;;;;5091983;28;20041;-67
2023/01/30 13:08:32;;;;;;;;;;;25.10;31.10;;;;;;5123485;27;20370;-67
2023/01/30 13:11:02;;;;;;;;;;;24.90;30.90;;;;;;5093977;28;20066;-66
2023/01/30 13:13:48;;;;;;;;;;;24.60;31.50;;;;;;5119756;27;19935;-66
2023/01/30 13:19:02;;;;;;;;;;;24.10;31.50;;;;;;5068717;27;1874270;-71
2023/01/30 13:21:48;;;;;;;;;;;23.70;32.30;;;;;;5118952;27;19924;-68
2023/01/30 13:26:57;;;;;;;;;;;23.10;33.20;;;;;;5074876;28;20383;-67
2023/01/30 13:29:27;;;;;;;;;;;22.90;33.50;;;;;;5061761;28;19924;-66
2023/01/30 13:31:55;;;;;;;;;;;22.80;33.80;;;;;;5054722;28;19924;-67
2023/01/30 13:34:42;;;;;;;;;;;22.60;34.20;;;;;;5053560;28;19932;-68
2023/01/30 13:37:13;;;;;;;;;;;22.50;34.30;;;;;;5079308;28;20415;-69
2023/01/30 13:39:42;;;;;;;;;;;22.40;34.70;;;;;;5061416;28;19935;-67
2023/01/30 13:42:14;;;;;;;;;;;22.20;34.90;;;;;;5058236;28;20423;-70
2023/01/30 13:44:42;;;;;;;;;;;22.10;35.30;;;;;;5060124;28;20410;-70
2023/01/30 13:47:23;;;;;;;;;;;21.90;35.50;;;;;;5076084;28;20001;-67
2023/01/30 13:55:20;;;;;;;;;;;21.60;36.30;;;;;;5055289;28;20300;-66
2023/01/30 13:57:49;;;;;;;;;;;21.40;36.40;;;;;;5044884;28;19933;-68
2023/01/30 14:08:29;;;;;;;;;;;20.90;36.20;;;;;;5093342;27;1867915;-68
2023/01/30 14:10:56;;;;;;;;;;;20.70;36.10;;;;;;5135354;27;19965;-67
2023/01/30 14:13:22;;;;;;;;;;;20.50;36.30;;;;;;5143291;27;20362;-68
2023/01/30 14:15:56;;;;;;;;;;;20.30;36.50;;;;;;5140355;27;19972;-68
2023/01/30 14:18:24;;;;;;;;;;;20.20;37.40;;;;;;5138641;27;19926;-68
2023/01/30 14:20:50;;;;;;;;;;;20.20;36.90;;;;;;5146058;27;19919;-66
2023/01/30 14:23:31;;;;;;;;;;;20.20;37.20;;;;;;5167914;27;20305;-67
2023/01/30 14:25:57;;;;;;;;;;;20.20;37.40;;;;;;5145999;27;19933;-71
2023/01/30 14:31:06;;;;;;;;;;;20.20;37.60;;;;;;5106074;27;20246;-71
2023/01/30 14:33:33;;;;;;;;;;;20.10;37.60;;;;;;5106792;28;19924;-71
2023/01/30 14:38:40;;;;;;;;;;;20.10;37.80;;;;;;5093774;27;20272;-69
2023/01/30 14:43:47;;;;;;;;;;;20.00;37.90;;;;;;5095810;27;20345;-68
2023/01/30 14:49:03;;;;;;;;;;;20.00;37.90;;;;;;5105643;27;19920;-69
2023/01/30 14:59:34;;;;;;;;;;;19.70;38.00;;;;;;5116803;27;1864840;-64
2023/01/30 15:07:44;;;;;;;;;;;19.70;38.90;;;;;;5101571;27;1949355;-67
2023/01/30 15:10:29;;;;;;;;;;;19.70;39.30;;;;;;5150122;27;19968;-68
2023/01/30 15:15:43;;;;;;;;;;;19.70;39.80;;;;;;5084797;28;19916;-70
2023/01/30 15:18:14;;;;;;;;;;;19.70;40.10;;;;;;5072281;28;19921;-66
2023/01/30 15:23:36;;;;;;;;;;;19.70;40.60;;;;;;5106678;27;19922;-69
2023/01/30 15:31:23;;;;;;;;;;;19.60;39.60;;;;;;5119313;27;1875549;-71
2023/01/30 15:33:50;;;;;;;;;;;19.60;39.40;;;;;;5150197;27;20369;-67
2023/01/30 15:36:16;;;;;;;;;;;19.60;39.60;;;;;;5140716;27;19945;-67
2023/01/30 15:38:42;;;;;;;;;;;19.60;39.50;;;;;;5141476;27;19958;-69
2023/01/30 15:41:08;;;;;;;;;;;19.50;39.30;;;;;;5151241;27;19955;-70
2023/01/30 15:43:40;;;;;;;;;;;19.50;39.50;;;;;;5141986;27;19927;-80
2023/01/30 15:46:12;;;;;;;;;;;19.50;39.30;;;;;;5142028;27;19919;-70
2023/01/30 15:48:57;;;;;;;;;;;19.50;39.10;;;;;;5132563;27;19954;-68
2023/01/30 15:51:26;;;;;;;;;;;19.50;38.60;;;;;;5144595;27;19923;-68
2023/01/30 15:53:52;;;;;;;;;;;19.50;38.80;;;;;;5144572;27;19957;-67
2023/01/30 15:56:20;;;;;;;;;;;19.40;39.00;;;;;;5151642;27;19926;-67
2023/01/30 15:58:48;;;;;;;;;;;19.40;39.00;;;;;;5170840;27;19940;-67
2023/01/30 16:01:21;;;;;;;;;;;19.40;39.10;;;;;;5152139;27;19919;-67
2023/01/30 16:03:48;;;;;;;;;;;19.40;39.10;;;;;;5170525;27;20285;-64
2023/01/30 16:06:34;;;;;;;;;;;19.30;39.20;;;;;;5170813;27;20002;-65
2023/01/30 16:09:02;;;;;;;;;;;19.30;39.30;;;;;;5170268;27;20358;-67
2023/01/30 16:11:32;;;;;;;;;;;19.20;39.20;;;;;;5170704;27;20138;-66
2023/01/30 16:14:01;;;;;;;;;;;19.20;39.30;;;;;;5148416;27;19918;-66
2023/01/30 16:16:27;;;;;;;;;;;19.20;39.20;;;;;;5162781;27;20362;-66
2023/01/30 16:18:55;;;;;;;;;;;19.20;39.30;;;;;;5144127;27;19970;-67
2023/01/30 16:21:23;;;;;;;;;;;19.10;39.30;;;;;;5147434;27;20014;-67
2023/01/30 16:23:54;;;;;;;;;;;19.10;39.30;;;;;;5129546;27;20405;-66
2023/01/30 16:26:21;;;;;;;;;;;19.10;39.30;;;;;;5129331;27;19931;-66
2023/01/30 16:28:47;;;;;;;;;;;19.10;39.30;;;;;;5148865;27;19920;-66
2023/01/30 16:31:13;;;;;;;;;;;19.10;39.40;;;;;;5149238;27;19977;-66
2023/01/30 16:33:39;;;;;;;;;;;19.00;39.30;;;;;;5131368;27;19958;-66
2023/01/30 16:36:24;;;;;;;;;;;19.00;39.40;;;;;;5149991;27;19969;-67
2023/01/30 16:38:54;;;;;;;;;;;19.00;39.40;;;;;;5131023;27;19941;-66
2023/01/30 16:41:38;;;;;;;;;;;19.00;39.40;;;;;;5143997;27;19919;-66
2023/01/30 16:47:01;;;;;;;;;;;18.90;39.50;;;;;;5132456;27;1881844;-66
2023/01/30 16:49:36;;;;;;;;;;;18.90;39.50;;;;;;5174003;27;19925;-67
2023/01/30 16:52:20;;;;;;;;;;;18.80;39.50;;;;;;5174369;27;19919;-66
2023/01/30 16:54:48;;;;;;;;;;;18.90;39.60;;;;;;5173855;27;19934;-66
2023/01/30 16:57:22;;;;;;;;;;;18.90;40.40;;;;;;5174652;27;20400;-66